Kennan, WI (54537)

2:45 PM CDT on July 30, 2014 (GMT -0500)
Cummings Maple Acres (KWIPHILL2) Elev 1542 ft | 45.64 °N, 90.34 °W | Change Station

Current weather conditions updated 5 seconds ago

Clear
Clear
71.2 °F
Feels Like 75 °F
N
1.0
Wind Variable Wind from WNW
Gusts 5.0 mph

Today is forecast to be nearly the same temperature as yesterday. A few thunderstorms possible.

Today
High -- | Low -- °F
--% Chance of Precip.
Yesterday
High -- | Low -- °F
Precip. -- in
5:43 AM 8:32 PM
Waxing Crescent, 13% visible
Pressure 30.04 in
Visibility 10.0 miles
Clouds Clear
Heat Index 75 °F
Dew Point 58 °F
Humidity 64%
Rainfall 0.00 in
Snow Depth Not available.
UV 9 out of 12
Pollen 7.00 out of 12
Air Quality Not available.
Flu Activity Not available.
METAR KPBH 301935Z AUTO 31004KT 10SM CLR 21/11 A3004 RMK AO2 T02110113

More Conditions Fewer Conditions

Pressure 30.04 in
Visibility 10.0 miles
Clouds Clear
Heat Index 75 °F
Dew Point 58 °F
Humidity 64%
Rainfall 0.00 in
Snow Depth Not available.
UV 9 out of 12
Pollen 7.00 out of 12
Air Quality Not available.
Flu Activity Not available.
METAR KPBH 301935Z AUTO 31004KT 10SM CLR 21/11 A3004 RMK AO2 T02110113

More Conditions Fewer Conditions

10-Day Weather Forecast

Almanac

Astronomy

Jul. 30, 2014 Rise Set
Actual Time 5:43 AM CDT 8:32 PM CDT
Civil Twilight 5:09 AM CDT 9:07 PM CDT
Nautical Twilight 4:25 AM CDT 9:50 PM CDT
Astronomical Twilight 3:34 AM CDT 10:41 PM CDT
Moon 9:28 AM CDT 10:01 PM CDT
Length of Visible Light 15h 57m
Length of Day
14h 49m
Tomorrow will be 2m 24s shorter.
Waxing Crescent, 13% of the Moon is Illuminated
Today
Waxing Crescent
Aug 3
First Quarter
Aug 10
Full
Aug 17
Last Quarter
Aug 25
New

Today's Extremes

State Highs State Lows

Community

WunderPhotos

Upload Photos

1,739,168 photos uploaded!

WunderBlogs® & News

Nearby

Snow Depth

Station Depth Elevation
No new snow has been reported.

Earthquake Activity

City Distance Mag. Time & Date
No recent earthquake activity has been reported nearby.
Minimum magnitude displayed is 2.5.

Coastal Water Temperatures

Place Temperature
No Stations Reporting

Nearby Weather Stations

Station Location Temp. Heat Index Dew Point Humidity Wind Precip. Elev Updated Type
Cummings Maple Acres, Phillips, WI 71.2 °F 75 °F 58 °F 64% WNW  at  1.0 mph 0.00 in / hr 1542 ft 2:45 PM CDT Rapid Fire
Downtown (BP station), Phillips, WI 71.5 °F 77 °F 52 °F 50% NNE  at  5.0 mph 0.00 in / hr 1470 ft 2:45 PM CDT Normal
Flambeau River State Forest, Park Falls, WI 71.7 °F 76 °F 55 °F 56% WNW  at  5.8 mph 0.00 in / hr 1476 ft 2:45 PM CDT Rapid Fire
WIDOT Fifield - STH 13 south of Fifield, Fifield, WI 72 °F 76 °F 56 °F 57% WSW  at  3 mph 0.00 in / hr 1450 ft 2:01 PM CDT MADIS

Show More Stations Show Fewer Stations